sensor_id;sensor_type;location;lat;lon;timestamp;P1;durP1;ratioP1;P2;durP2;ratioP2
74677;SDS011;67324;56.326;43.982;2023-03-02T00:01:35;1.55;;;0.95;;
74677;SDS011;67324;56.326;43.982;2023-03-02T00:04:03;1.38;;;0.90;;
74677;SDS011;67324;56.326;43.982;2023-03-02T00:06:32;1.13;;;0.90;;
74677;SDS011;67324;56.326;43.982;2023-03-02T00:09:01;1.08;;;0.90;;
74677;SDS011;67324;56.326;43.982;2023-03-02T00:11:29;1.33;;;1.02;;
74677;SDS011;67324;56.326;43.982;2023-03-02T00:13:56;1.40;;;1.02;;
74677;SDS011;67324;56.326;43.982;2023-03-02T00:16:22;1.20;;;0.95;;
74677;SDS011;67324;56.326;43.982;2023-03-02T00:18:48;0.93;;;0.80;;
74677;SDS011;67324;56.326;43.982;2023-03-02T00:21:14;1.77;;;1.00;;
74677;SDS011;67324;56.326;43.982;2023-03-02T00:23:58;1.20;;;0.93;;
74677;SDS011;67324;56.326;43.982;2023-03-02T00:26:24;1.27;;;0.90;;
74677;SDS011;67324;56.326;43.982;2023-03-02T00:28:50;1.92;;;1.00;;
74677;SDS011;67324;56.326;43.982;2023-03-02T00:31:16;1.52;;;0.90;;
74677;SDS011;67324;56.326;43.982;2023-03-02T00:33:42;1.60;;;0.98;;
74677;SDS011;67324;56.326;43.982;2023-03-02T00:36:15;1.45;;;0.90;;
74677;SDS011;67324;56.326;43.982;2023-03-02T00:38:43;1.20;;;1.00;;
74677;SDS011;67324;56.326;43.982;2023-03-02T00:41:10;1.25;;;0.95;;
74677;SDS011;67324;56.326;43.982;2023-03-02T00:43:36;1.95;;;0.98;;
74677;SDS011;67324;56.326;43.982;2023-03-02T00:46:12;1.20;;;0.90;;
74677;SDS011;67324;56.326;43.982;2023-03-02T00:48:40;1.30;;;1.05;;
74677;SDS011;67324;56.326;43.982;2023-03-02T00:51:07;1.65;;;1.02;;
74677;SDS011;67324;56.326;43.982;2023-03-02T00:53:33;1.48;;;1.00;;
74677;SDS011;67324;56.326;43.982;2023-03-02T00:56:00;1.30;;;0.85;;
74677;SDS011;67324;56.326;43.982;2023-03-02T00:58:27;1.42;;;0.80;;
74677;SDS011;67324;56.326;43.982;2023-03-02T01:00:54;1.40;;;1.00;;
74677;SDS011;67324;56.326;43.982;2023-03-02T01:03:21;1.13;;;0.82;;
74677;SDS011;67324;56.326;43.982;2023-03-02T01:05:47;1.27;;;0.90;;
74677;SDS011;67324;56.326;43.982;2023-03-02T01:08:13;1.20;;;1.00;;
74677;SDS011;67324;56.326;43.982;2023-03-02T01:10:39;1.38;;;0.90;;
74677;SDS011;67324;56.326;43.982;2023-03-02T01:13:06;1.45;;;0.90;;
74677;SDS011;67324;56.326;43.982;2023-03-02T01:15:32;1.52;;;0.90;;
74677;SDS011;67324;56.326;43.982;2023-03-02T01:17:59;1.30;;;0.90;;
74677;SDS011;67324;56.326;43.982;2023-03-02T01:20:25;2.03;;;1.00;;
74677;SDS011;67324;56.326;43.982;2023-03-02T01:22:52;0.98;;;0.88;;
74677;SDS011;67324;56.326;43.982;2023-03-02T01:25:17;0.90;;;0.70;;
74677;SDS011;67324;56.326;43.982;2023-03-02T01:27:43;1.58;;;1.00;;
74677;SDS011;67324;56.326;43.982;2023-03-02T01:30:09;1.65;;;0.93;;
74677;SDS011;67324;56.326;43.982;2023-03-02T01:32:36;1.10;;;0.90;;
74677;SDS011;67324;56.326;43.982;2023-03-02T01:35:02;1.77;;;1.10;;
74677;SDS011;67324;56.326;43.982;2023-03-02T01:37:29;1.17;;;0.90;;
74677;SDS011;67324;56.326;43.982;2023-03-02T01:39:54;0.85;;;0.77;;
74677;SDS011;67324;56.326;43.982;2023-03-02T01:42:20;1.90;;;0.90;;
74677;SDS011;67324;56.326;43.982;2023-03-02T01:44:48;1.25;;;0.90;;
74677;SDS011;67324;56.326;43.982;2023-03-02T01:52:38;1.33;;;0.80;;
74677;SDS011;67324;56.326;43.982;2023-03-02T01:55:06;1.08;;;0.90;;
74677;SDS011;67324;56.326;43.982;2023-03-02T01:57:40;1.00;;;0.90;;
74677;SDS011;67324;56.326;43.982;2023-03-02T02:00:13;1.20;;;0.80;;
74677;SDS011;67324;56.326;43.982;2023-03-02T02:02:45;1.00;;;0.85;;
74677;SDS011;67324;56.326;43.982;2023-03-02T02:05:13;1.58;;;0.80;;
74677;SDS011;67324;56.326;43.982;2023-03-02T02:07:44;1.15;;;0.80;;
74677;SDS011;67324;56.326;43.982;2023-03-02T02:10:10;0.80;;;0.80;;
74677;SDS011;67324;56.326;43.982;2023-03-02T02:12:38;1.38;;;0.90;;
74677;SDS011;67324;56.326;43.982;2023-03-02T02:15:24;1.25;;;0.82;;
74677;SDS011;67324;56.326;43.982;2023-03-02T02:17:50;1.30;;;0.98;;
74677;SDS011;67324;56.326;43.982;2023-03-02T02:20:30;1.52;;;1.13;;
74677;SDS011;67324;56.326;43.982;2023-03-02T02:28:29;1.45;;;1.00;;
74677;SDS011;67324;56.326;43.982;2023-03-02T02:34:10;1.23;;;0.90;;
74677;SDS011;67324;56.326;43.982;2023-03-02T02:36:51;1.63;;;0.90;;
74677;SDS011;67324;56.326;43.982;2023-03-02T02:39:23;1.13;;;0.90;;
74677;SDS011;67324;56.326;43.982;2023-03-02T02:41:57;0.93;;;0.80;;
74677;SDS011;67324;56.326;43.982;2023-03-02T02:44:44;1.13;;;0.90;;
74677;SDS011;67324;56.326;43.982;2023-03-02T02:47:15;0.77;;;0.75;;
74677;SDS011;67324;56.326;43.982;2023-03-02T02:49:44;1.10;;;1.00;;
74677;SDS011;67324;56.326;43.982;2023-03-02T02:52:16;0.95;;;0.77;;
74677;SDS011;67324;56.326;43.982;2023-03-02T02:55:03;1.17;;;0.80;;
74677;SDS011;67324;56.326;43.982;2023-03-02T02:57:30;1.27;;;0.90;;
74677;SDS011;67324;56.326;43.982;2023-03-02T02:59:57;0.98;;;0.80;;
74677;SDS011;67324;56.326;43.982;2023-03-02T03:02:26;1.30;;;0.90;;
74677;SDS011;67324;56.326;43.982;2023-03-02T03:04:55;0.90;;;0.70;;
74677;SDS011;67324;56.326;43.982;2023-03-02T03:07:30;1.25;;;0.77;;
74677;SDS011;67324;56.326;43.982;2023-03-02T03:12:47;1.10;;;0.80;;
74677;SDS011;67324;56.326;43.982;2023-03-02T03:15:14;1.13;;;0.80;;
74677;SDS011;67324;56.326;43.982;2023-03-02T03:17:59;0.82;;;0.80;;
74677;SDS011;67324;56.326;43.982;2023-03-02T03:20:26;1.00;;;0.80;;
74677;SDS011;67324;56.326;43.982;2023-03-02T03:22:52;1.50;;;0.80;;
74677;SDS011;67324;56.326;43.982;2023-03-02T03:25:20;0.82;;;0.70;;
74677;SDS011;67324;56.326;43.982;2023-03-02T03:27:49;1.02;;;0.90;;
74677;SDS011;67324;56.326;43.982;2023-03-02T03:30:16;1.08;;;0.90;;
74677;SDS011;67324;56.326;43.982;2023-03-02T03:32:43;1.13;;;0.80;;
74677;SDS011;67324;56.326;43.982;2023-03-02T03:35:09;1.00;;;0.80;;
74677;SDS011;67324;56.326;43.982;2023-03-02T03:37:40;1.38;;;0.70;;
74677;SDS011;67324;56.326;43.982;2023-03-02T03:40:09;1.27;;;0.90;;
74677;SDS011;67324;56.326;43.982;2023-03-02T03:42:37;1.17;;;0.80;;
74677;SDS011;67324;56.326;43.982;2023-03-02T03:45:04;1.00;;;0.80;;
74677;SDS011;67324;56.326;43.982;2023-03-02T03:47:33;1.38;;;0.80;;
74677;SDS011;67324;56.326;43.982;2023-03-02T03:50:00;1.58;;;0.75;;
74677;SDS011;67324;56.326;43.982;2023-03-02T03:52:44;1.08;;;0.80;;
74677;SDS011;67324;56.326;43.982;2023-03-02T03:55:15;1.65;;;1.00;;
74677;SDS011;67324;56.326;43.982;2023-03-02T03:57:42;1.05;;;0.80;;
74677;SDS011;67324;56.326;43.982;2023-03-02T04:00:09;1.05;;;0.75;;
74677;SDS011;67324;56.326;43.982;2023-03-02T04:02:40;1.10;;;0.80;;
74677;SDS011;67324;56.326;43.982;2023-03-02T04:05:06;0.93;;;0.75;;
74677;SDS011;67324;56.326;43.982;2023-03-02T04:07:33;1.05;;;0.90;;
74677;SDS011;67324;56.326;43.982;2023-03-02T04:10:00;0.80;;;0.70;;
74677;SDS011;67324;56.326;43.982;2023-03-02T04:12:33;1.00;;;0.77;;
74677;SDS011;67324;56.326;43.982;2023-03-02T04:15:02;1.63;;;0.88;;
74677;SDS011;67324;56.326;43.982;2023-03-02T04:17:30;0.85;;;0.73;;
74677;SDS011;67324;56.326;43.982;2023-03-02T04:19:56;1.52;;;1.00;;
74677;SDS011;67324;56.326;43.982;2023-03-02T04:22:23;1.02;;;0.77;;
74677;SDS011;67324;56.326;43.982;2023-03-02T04:24:49;2.55;;;1.02;;
74677;SDS011;67324;56.326;43.982;2023-03-02T04:27:15;1.77;;;1.00;;
74677;SDS011;67324;56.326;43.982;2023-03-02T04:29:43;2.63;;;1.10;;
74677;SDS011;67324;56.326;43.982;2023-03-02T04:32:10;1.15;;;0.77;;
74677;SDS011;67324;56.326;43.982;2023-03-02T04:34:40;2.05;;;0.75;;
74677;SDS011;67324;56.326;43.982;2023-03-02T04:37:06;1.67;;;0.90;;
74677;SDS011;67324;56.326;43.982;2023-03-02T04:39:32;3.03;;;1.20;;
74677;SDS011;67324;56.326;43.982;2023-03-02T04:41:58;1.13;;;0.80;;
74677;SDS011;67324;56.326;43.982;2023-03-02T04:44:24;2.00;;;1.00;;
74677;SDS011;67324;56.326;43.982;2023-03-02T04:46:50;1.70;;;0.80;;
74677;SDS011;67324;56.326;43.982;2023-03-02T04:49:16;1.58;;;0.82;;
74677;SDS011;67324;56.326;43.982;2023-03-02T04:51:44;1.55;;;0.88;;
74677;SDS011;67324;56.326;43.982;2023-03-02T04:54:13;2.33;;;0.75;;
74677;SDS011;67324;56.326;43.982;2023-03-02T04:56:42;1.25;;;0.90;;
74677;SDS011;67324;56.326;43.982;2023-03-02T04:59:08;2.13;;;0.85;;
74677;SDS011;67324;56.326;43.982;2023-03-02T05:01:34;2.20;;;0.88;;
74677;SDS011;67324;56.326;43.982;2023-03-02T05:04:19;2.13;;;1.00;;
74677;SDS011;67324;56.326;43.982;2023-03-02T05:06:44;1.77;;;0.95;;
74677;SDS011;67324;56.326;43.982;2023-03-02T05:09:11;1.00;;;0.80;;
74677;SDS011;67324;56.326;43.982;2023-03-02T05:11:37;1.50;;;0.80;;
74677;SDS011;67324;56.326;43.982;2023-03-02T05:14:04;1.52;;;0.80;;
74677;SDS011;67324;56.326;43.982;2023-03-02T05:16:33;1.52;;;0.88;;
74677;SDS011;67324;56.326;43.982;2023-03-02T05:19:03;1.27;;;0.90;;
74677;SDS011;67324;56.326;43.982;2023-03-02T05:21:30;0.90;;;0.80;;
74677;SDS011;67324;56.326;43.982;2023-03-02T05:24:15;0.82;;;0.80;;
74677;SDS011;67324;56.326;43.982;2023-03-02T05:26:41;0.85;;;0.70;;
74677;SDS011;67324;56.326;43.982;2023-03-02T05:29:07;1.13;;;0.80;;
74677;SDS011;67324;56.326;43.982;2023-03-02T05:31:34;1.40;;;1.00;;
74677;SDS011;67324;56.326;43.982;2023-03-02T05:34:02;1.42;;;0.80;;
74677;SDS011;67324;56.326;43.982;2023-03-02T05:36:29;0.90;;;0.80;;
74677;SDS011;67324;56.326;43.982;2023-03-02T05:38:55;1.30;;;0.90;;
74677;SDS011;67324;56.326;43.982;2023-03-02T05:41:21;1.25;;;0.75;;
74677;SDS011;67324;56.326;43.982;2023-03-02T05:43:47;1.50;;;1.00;;
74677;SDS011;67324;56.326;43.982;2023-03-02T05:46:13;1.42;;;0.90;;
74677;SDS011;67324;56.326;43.982;2023-03-02T05:48:57;2.35;;;0.75;;
74677;SDS011;67324;56.326;43.982;2023-03-02T05:51:23;1.20;;;0.80;;
74677;SDS011;67324;56.326;43.982;2023-03-02T05:53:49;1.58;;;0.82;;
74677;SDS011;67324;56.326;43.982;2023-03-02T05:56:15;1.08;;;0.77;;
74677;SDS011;67324;56.326;43.982;2023-03-02T05:58:41;1.70;;;1.00;;
74677;SDS011;67324;56.326;43.982;2023-03-02T06:01:08;1.63;;;1.02;;
74677;SDS011;67324;56.326;43.982;2023-03-02T06:03:35;1.10;;;0.80;;
74677;SDS011;67324;56.326;43.982;2023-03-02T06:06:01;1.30;;;0.90;;
74677;SDS011;67324;56.326;43.982;2023-03-02T06:08:27;0.93;;;0.80;;
74677;SDS011;67324;56.326;43.982;2023-03-02T06:10:56;1.80;;;0.90;;
74677;SDS011;67324;56.326;43.982;2023-03-02T06:13:22;1.30;;;0.90;;
74677;SDS011;67324;56.326;43.982;2023-03-02T06:15:48;1.67;;;0.95;;
74677;SDS011;67324;56.326;43.982;2023-03-02T06:18:14;0.95;;;0.77;;
74677;SDS011;67324;56.326;43.982;2023-03-02T06:20:40;1.20;;;0.80;;
74677;SDS011;67324;56.326;43.982;2023-03-02T06:23:06;1.05;;;0.70;;
74677;SDS011;67324;56.326;43.982;2023-03-02T06:25:32;1.52;;;1.00;;
74677;SDS011;67324;56.326;43.982;2023-03-02T06:28:00;2.20;;;0.90;;
74677;SDS011;67324;56.326;43.982;2023-03-02T06:30:26;1.17;;;0.80;;
74677;SDS011;67324;56.326;43.982;2023-03-02T06:33:10;1.00;;;0.80;;
74677;SDS011;67324;56.326;43.982;2023-03-02T06:35:36;2.20;;;0.80;;
74677;SDS011;67324;56.326;43.982;2023-03-02T06:38:02;1.05;;;0.90;;
74677;SDS011;67324;56.326;43.982;2023-03-02T06:43:31;1.02;;;0.90;;
74677;SDS011;67324;56.326;43.982;2023-03-02T06:45:57;1.20;;;0.85;;
74677;SDS011;67324;56.326;43.982;2023-03-02T06:48:25;1.40;;;0.80;;
74677;SDS011;67324;56.326;43.982;2023-03-02T06:50:51;1.20;;;0.80;;
74677;SDS011;67324;56.326;43.982;2023-03-02T06:53:17;1.67;;;0.80;;
74677;SDS011;67324;56.326;43.982;2023-03-02T06:55:46;1.50;;;0.90;;
74677;SDS011;67324;56.326;43.982;2023-03-02T06:58:30;1.45;;;0.88;;
74677;SDS011;67324;56.326;43.982;2023-03-02T07:00:56;1.02;;;0.80;;
74677;SDS011;67324;56.326;43.982;2023-03-02T07:03:22;1.05;;;0.80;;
74677;SDS011;67324;56.326;43.982;2023-03-02T07:05:48;1.00;;;0.82;;
74677;SDS011;67324;56.326;43.982;2023-03-02T07:08:16;1.10;;;0.80;;
74677;SDS011;67324;56.326;43.982;2023-03-02T07:10:42;0.95;;;0.80;;
74677;SDS011;67324;56.326;43.982;2023-03-02T07:13:07;0.98;;;0.80;;
74677;SDS011;67324;56.326;43.982;2023-03-02T07:15:33;1.55;;;1.10;;
74677;SDS011;67324;56.326;43.982;2023-03-02T07:18:18;2.10;;;1.00;;
74677;SDS011;67324;56.326;43.982;2023-03-02T07:20:44;1.35;;;1.00;;
74677;SDS011;67324;56.326;43.982;2023-03-02T07:23:10;1.20;;;0.90;;
74677;SDS011;67324;56.326;43.982;2023-03-02T07:25:36;1.40;;;0.90;;
74677;SDS011;67324;56.326;43.982;2023-03-02T07:28:02;1.92;;;1.00;;
74677;SDS011;67324;56.326;43.982;2023-03-02T07:30:28;1.88;;;1.17;;
74677;SDS011;67324;56.326;43.982;2023-03-02T07:32:54;1.88;;;0.98;;
74677;SDS011;67324;56.326;43.982;2023-03-02T07:35:20;1.35;;;1.02;;
74677;SDS011;67324;56.326;43.982;2023-03-02T07:37:46;1.15;;;0.90;;
74677;SDS011;67324;56.326;43.982;2023-03-02T07:40:12;2.03;;;1.20;;
74677;SDS011;67324;56.326;43.982;2023-03-02T07:42:38;2.28;;;1.00;;
74677;SDS011;67324;56.326;43.982;2023-03-02T07:45:05;1.00;;;0.80;;
74677;SDS011;67324;56.326;43.982;2023-03-02T07:47:32;1.92;;;1.10;;
74677;SDS011;67324;56.326;43.982;2023-03-02T07:49:57;1.55;;;1.00;;
74677;SDS011;67324;56.326;43.982;2023-03-02T07:52:23;1.42;;;1.10;;
74677;SDS011;67324;56.326;43.982;2023-03-02T07:54:49;1.85;;;1.10;;
74677;SDS011;67324;56.326;43.982;2023-03-02T07:57:15;1.73;;;1.10;;
74677;SDS011;67324;56.326;43.982;2023-03-02T07:59:42;1.52;;;1.10;;
74677;SDS011;67324;56.326;43.982;2023-03-02T08:02:16;1.55;;;1.10;;
74677;SDS011;67324;56.326;43.982;2023-03-02T08:04:42;1.33;;;1.10;;
74677;SDS011;67324;56.326;43.982;2023-03-02T08:07:08;1.35;;;1.08;;
74677;SDS011;67324;56.326;43.982;2023-03-02T08:09:34;1.83;;;1.20;;
74677;SDS011;67324;56.326;43.982;2023-03-02T08:12:00;1.20;;;0.90;;
74677;SDS011;67324;56.326;43.982;2023-03-02T08:17:11;1.60;;;1.10;;
74677;SDS011;67324;56.326;43.982;2023-03-02T08:19:37;1.60;;;1.20;;
74677;SDS011;67324;56.326;43.982;2023-03-02T08:22:03;2.50;;;1.15;;
74677;SDS011;67324;56.326;43.982;2023-03-02T08:24:47;1.48;;;0.88;;
74677;SDS011;67324;56.326;43.982;2023-03-02T08:27:13;1.63;;;1.10;;
74677;SDS011;67324;56.326;43.982;2023-03-02T08:29:40;1.85;;;1.02;;
74677;SDS011;67324;56.326;43.982;2023-03-02T08:32:06;1.85;;;1.00;;
74677;SDS011;67324;56.326;43.982;2023-03-02T08:34:32;1.75;;;1.15;;
74677;SDS011;67324;56.326;43.982;2023-03-02T08:36:58;2.00;;;1.10;;
74677;SDS011;67324;56.326;43.982;2023-03-02T08:39:24;1.85;;;1.10;;
74677;SDS011;67324;56.326;43.982;2023-03-02T08:41:50;1.58;;;1.00;;
74677;SDS011;67324;56.326;43.982;2023-03-02T08:44:16;2.25;;;1.38;;
74677;SDS011;67324;56.326;43.982;2023-03-02T08:46:43;1.63;;;1.10;;
74677;SDS011;67324;56.326;43.982;2023-03-02T08:49:08;1.42;;;1.00;;
74677;SDS011;67324;56.326;43.982;2023-03-02T08:51:34;1.90;;;1.13;;
74677;SDS011;67324;56.326;43.982;2023-03-02T08:54:00;1.77;;;1.20;;
74677;SDS011;67324;56.326;43.982;2023-03-02T08:56:27;1.45;;;1.00;;
74677;SDS011;67324;56.326;43.982;2023-03-02T08:58:59;2.13;;;1.30;;
74677;SDS011;67324;56.326;43.982;2023-03-02T09:01:28;1.33;;;1.00;;
74677;SDS011;67324;56.326;43.982;2023-03-02T09:03:56;2.13;;;1.20;;
74677;SDS011;67324;56.326;43.982;2023-03-02T09:06:24;1.70;;;1.10;;
74677;SDS011;67324;56.326;43.982;2023-03-02T09:09:08;1.67;;;1.08;;
74677;SDS011;67324;56.326;43.982;2023-03-02T09:11:35;2.00;;;1.13;;
74677;SDS011;67324;56.326;43.982;2023-03-02T09:14:01;1.55;;;1.17;;
74677;SDS011;67324;56.326;43.982;2023-03-02T09:16:27;2.20;;;1.35;;
74677;SDS011;67324;56.326;43.982;2023-03-02T09:18:53;1.60;;;1.10;;
74677;SDS011;67324;56.326;43.982;2023-03-02T09:21:19;1.80;;;1.15;;
74677;SDS011;67324;56.326;43.982;2023-03-02T09:23:45;1.88;;;1.10;;
74677;SDS011;67324;56.326;43.982;2023-03-02T09:26:11;1.50;;;1.10;;
74677;SDS011;67324;56.326;43.982;2023-03-02T09:28:37;2.03;;;1.20;;
74677;SDS011;67324;56.326;43.982;2023-03-02T09:31:04;1.73;;;1.00;;
74677;SDS011;67324;56.326;43.982;2023-03-02T09:33:32;2.15;;;1.40;;
74677;SDS011;67324;56.326;43.982;2023-03-02T09:35:58;1.75;;;1.20;;
74677;SDS011;67324;56.326;43.982;2023-03-02T09:38:44;1.77;;;1.10;;
74677;SDS011;67324;56.326;43.982;2023-03-02T09:46:50;1.38;;;1.10;;
74677;SDS011;67324;56.326;43.982;2023-03-02T09:52:09;1.85;;;1.15;;
74677;SDS011;67324;56.326;43.982;2023-03-02T09:54:41;1.80;;;1.20;;
74677;SDS011;67324;56.326;43.982;2023-03-02T09:57:17;2.50;;;1.27;;
74677;SDS011;67324;56.326;43.982;2023-03-02T09:59:56;1.70;;;1.20;;
74677;SDS011;67324;56.326;43.982;2023-03-02T10:02:31;1.83;;;1.20;;
74677;SDS011;67324;56.326;43.982;2023-03-02T10:05:03;1.38;;;1.10;;
74677;SDS011;67324;56.326;43.982;2023-03-02T10:07:38;1.50;;;1.10;;
74677;SDS011;67324;56.326;43.982;2023-03-02T10:15:25;1.58;;;1.20;;
74677;SDS011;67324;56.326;43.982;2023-03-02T10:18:22;1.52;;;1.20;;
74677;SDS011;67324;56.326;43.982;2023-03-02T10:20:59;1.75;;;1.20;;
74677;SDS011;67324;56.326;43.982;2023-03-02T10:28:42;1.65;;;1.15;;
74677;SDS011;67324;56.326;43.982;2023-03-02T10:31:28;1.85;;;1.10;;
74677;SDS011;67324;56.326;43.982;2023-03-02T10:33:57;1.30;;;1.13;;
74677;SDS011;67324;56.326;43.982;2023-03-02T10:36:24;2.20;;;1.30;;
74677;SDS011;67324;56.326;43.982;2023-03-02T10:38:52;2.15;;;1.33;;
74677;SDS011;67324;56.326;43.982;2023-03-02T10:41:21;1.80;;;1.40;;
74677;SDS011;67324;56.326;43.982;2023-03-02T10:43:56;2.40;;;1.10;;
74677;SDS011;67324;56.326;43.982;2023-03-02T10:46:36;1.83;;;1.30;;
74677;SDS011;67324;56.326;43.982;2023-03-02T10:49:17;1.95;;;1.20;;
74677;SDS011;67324;56.326;43.982;2023-03-02T10:51:59;1.90;;;1.30;;
74677;SDS011;67324;56.326;43.982;2023-03-02T10:54:37;1.60;;;1.20;;
74677;SDS011;67324;56.326;43.982;2023-03-02T10:57:04;1.98;;;1.30;;
74677;SDS011;67324;56.326;43.982;2023-03-02T11:00:17;2.05;;;1.40;;
74677;SDS011;67324;56.326;43.982;2023-03-02T11:02:52;1.70;;;1.40;;
74677;SDS011;67324;56.326;43.982;2023-03-02T11:05:29;1.50;;;1.05;;
74677;SDS011;67324;56.326;43.982;2023-03-02T11:08:09;2.03;;;1.40;;
74677;SDS011;67324;56.326;43.982;2023-03-02T11:11:00;2.70;;;1.50;;
74677;SDS011;67324;56.326;43.982;2023-03-02T11:15:59;1.48;;;1.17;;
74677;SDS011;67324;56.326;43.982;2023-03-02T11:18:30;2.20;;;1.30;;
74677;SDS011;67324;56.326;43.982;2023-03-02T11:26:37;2.35;;;1.30;;
74677;SDS011;67324;56.326;43.982;2023-03-02T11:31:45;1.58;;;1.25;;
74677;SDS011;67324;56.326;43.982;2023-03-02T11:34:34;2.33;;;1.50;;
74677;SDS011;67324;56.326;43.982;2023-03-02T11:42:46;1.85;;;1.20;;
74677;SDS011;67324;56.326;43.982;2023-03-02T11:47:45;1.92;;;1.20;;
74677;SDS011;67324;56.326;43.982;2023-03-02T11:50:15;1.70;;;1.17;;
74677;SDS011;67324;56.326;43.982;2023-03-02T11:52:43;1.92;;;1.13;;
74677;SDS011;67324;56.326;43.982;2023-03-02T11:55:18;2.63;;;1.50;;
74677;SDS011;67324;56.326;43.982;2023-03-02T11:57:59;1.83;;;1.30;;
74677;SDS011;67324;56.326;43.982;2023-03-02T12:00:37;2.03;;;1.30;;
74677;SDS011;67324;56.326;43.982;2023-03-02T12:03:06;1.67;;;1.10;;
74677;SDS011;67324;56.326;43.982;2023-03-02T12:05:46;1.67;;;1.10;;
74677;SDS011;67324;56.326;43.982;2023-03-02T12:08:31;2.10;;;1.30;;
74677;SDS011;67324;56.326;43.982;2023-03-02T12:16:34;2.53;;;1.50;;
74677;SDS011;67324;56.326;43.982;2023-03-02T12:22:04;2.05;;;1.45;;
74677;SDS011;67324;56.326;43.982;2023-03-02T12:24:35;1.80;;;1.30;;
74677;SDS011;67324;56.326;43.982;2023-03-02T12:27:05;1.70;;;1.20;;
74677;SDS011;67324;56.326;43.982;2023-03-02T12:34:54;2.10;;;1.20;;
74677;SDS011;67324;56.326;43.982;2023-03-02T12:37:32;1.55;;;1.20;;
74677;SDS011;67324;56.326;43.982;2023-03-02T12:43:16;1.50;;;1.20;;
74677;SDS011;67324;56.326;43.982;2023-03-02T12:51:11;2.33;;;1.27;;
74677;SDS011;67324;56.326;43.982;2023-03-02T12:53:46;1.40;;;1.20;;
74677;SDS011;67324;56.326;43.982;2023-03-02T12:56:34;2.20;;;1.20;;
74677;SDS011;67324;56.326;43.982;2023-03-02T12:59:00;1.73;;;1.10;;
74677;SDS011;67324;56.326;43.982;2023-03-02T13:01:27;1.67;;;1.20;;
74677;SDS011;67324;56.326;43.982;2023-03-02T13:03:55;1.60;;;1.20;;
74677;SDS011;67324;56.326;43.982;2023-03-02T13:06:22;1.52;;;1.20;;
74677;SDS011;67324;56.326;43.982;2023-03-02T13:08:54;1.40;;;1.20;;
74677;SDS011;67324;56.326;43.982;2023-03-02T13:11:24;1.60;;;1.20;;
74677;SDS011;67324;56.326;43.982;2023-03-02T13:13:58;2.15;;;1.23;;
74677;SDS011;67324;56.326;43.982;2023-03-02T13:18:56;1.80;;;1.45;;
74677;SDS011;67324;56.326;43.982;2023-03-02T13:24:02;1.85;;;1.30;;
74677;SDS011;67324;56.326;43.982;2023-03-02T13:27:06;2.65;;;1.50;;
74677;SDS011;67324;56.326;43.982;2023-03-02T13:30:18;2.15;;;1.27;;
74677;SDS011;67324;56.326;43.982;2023-03-02T13:33:16;1.55;;;1.20;;
74677;SDS011;67324;56.326;43.982;2023-03-02T13:35:46;1.70;;;1.30;;
74677;SDS011;67324;56.326;43.982;2023-03-02T13:38:15;1.85;;;1.20;;
74677;SDS011;67324;56.326;43.982;2023-03-02T13:40:44;1.55;;;1.20;;
74677;SDS011;67324;56.326;43.982;2023-03-02T13:45:55;2.28;;;1.50;;
74677;SDS011;67324;56.326;43.982;2023-03-02T13:48:25;1.67;;;1.20;;
74677;SDS011;67324;56.326;43.982;2023-03-02T13:50:53;1.67;;;1.23;;
74677;SDS011;67324;56.326;43.982;2023-03-02T13:53:23;1.63;;;1.15;;
74677;SDS011;67324;56.326;43.982;2023-03-02T13:55:51;2.03;;;1.58;;
74677;SDS011;67324;56.326;43.982;2023-03-02T13:58:18;2.08;;;1.40;;
74677;SDS011;67324;56.326;43.982;2023-03-02T14:00:46;1.75;;;1.30;;
74677;SDS011;67324;56.326;43.982;2023-03-02T14:03:23;2.00;;;1.30;;
74677;SDS011;67324;56.326;43.982;2023-03-02T14:05:51;2.25;;;1.30;;
74677;SDS011;67324;56.326;43.982;2023-03-02T14:08:17;1.23;;;1.05;;
74677;SDS011;67324;56.326;43.982;2023-03-02T14:10:44;1.48;;;1.17;;
74677;SDS011;67324;56.326;43.982;2023-03-02T14:13:15;1.77;;;1.10;;
74677;SDS011;67324;56.326;43.982;2023-03-02T14:15:47;1.75;;;1.48;;
74677;SDS011;67324;56.326;43.982;2023-03-02T14:20:59;2.15;;;1.20;;
74677;SDS011;67324;56.326;43.982;2023-03-02T14:23:26;2.40;;;1.45;;
74677;SDS011;67324;56.326;43.982;2023-03-02T14:29:09;1.70;;;1.20;;
74677;SDS011;67324;56.326;43.982;2023-03-02T14:31:53;1.48;;;1.20;;
74677;SDS011;67324;56.326;43.982;2023-03-02T14:34:24;1.63;;;1.27;;
74677;SDS011;67324;56.326;43.982;2023-03-02T14:36:52;1.58;;;1.10;;
74677;SDS011;67324;56.326;43.982;2023-03-02T14:39:34;2.10;;;1.20;;
74677;SDS011;67324;56.326;43.982;2023-03-02T14:42:02;1.65;;;1.30;;
74677;SDS011;67324;56.326;43.982;2023-03-02T14:44:28;1.75;;;1.10;;
74677;SDS011;67324;56.326;43.982;2023-03-02T14:46:54;2.15;;;1.33;;
74677;SDS011;67324;56.326;43.982;2023-03-02T14:49:21;2.00;;;1.40;;
74677;SDS011;67324;56.326;43.982;2023-03-02T14:51:53;1.77;;;1.30;;
74677;SDS011;67324;56.326;43.982;2023-03-02T14:54:40;1.95;;;1.20;;
74677;SDS011;67324;56.326;43.982;2023-03-02T14:57:18;1.80;;;1.30;;
74677;SDS011;67324;56.326;43.982;2023-03-02T14:59:46;1.60;;;1.20;;
74677;SDS011;67324;56.326;43.982;2023-03-02T15:02:12;1.65;;;1.20;;
74677;SDS011;67324;56.326;43.982;2023-03-02T15:04:38;1.67;;;1.30;;
74677;SDS011;67324;56.326;43.982;2023-03-02T15:07:04;1.75;;;1.27;;
74677;SDS011;67324;56.326;43.982;2023-03-02T15:09:30;1.60;;;1.20;;
74677;SDS011;67324;56.326;43.982;2023-03-02T15:11:56;2.00;;;1.15;;
74677;SDS011;67324;56.326;43.982;2023-03-02T15:17:25;1.90;;;1.33;;
74677;SDS011;67324;56.326;43.982;2023-03-02T15:19:51;1.85;;;1.30;;
74677;SDS011;67324;56.326;43.982;2023-03-02T15:22:17;1.67;;;1.10;;
74677;SDS011;67324;56.326;43.982;2023-03-02T15:24:43;1.60;;;1.10;;
74677;SDS011;67324;56.326;43.982;2023-03-02T15:27:08;2.28;;;1.20;;
74677;SDS011;67324;56.326;43.982;2023-03-02T15:29:34;1.65;;;1.10;;
74677;SDS011;67324;56.326;43.982;2023-03-02T15:32:00;1.55;;;1.30;;
74677;SDS011;67324;56.326;43.982;2023-03-02T15:34:26;1.65;;;1.13;;
74677;SDS011;67324;56.326;43.982;2023-03-02T15:36:52;1.48;;;1.30;;
74677;SDS011;67324;56.326;43.982;2023-03-02T15:39:18;1.52;;;1.30;;
74677;SDS011;67324;56.326;43.982;2023-03-02T15:41:43;1.73;;;1.20;;
74677;SDS011;67324;56.326;43.982;2023-03-02T15:44:14;3.15;;;1.48;;
74677;SDS011;67324;56.326;43.982;2023-03-02T15:46:47;1.45;;;1.00;;
74677;SDS011;67324;56.326;43.982;2023-03-02T15:49:13;1.70;;;1.30;;
74677;SDS011;67324;56.326;43.982;2023-03-02T15:51:39;1.58;;;1.30;;
74677;SDS011;67324;56.326;43.982;2023-03-02T15:54:05;1.88;;;1.40;;
74677;SDS011;67324;56.326;43.982;2023-03-02T15:56:31;1.85;;;1.30;;
74677;SDS011;67324;56.326;43.982;2023-03-02T15:58:57;1.58;;;1.17;;
74677;SDS011;67324;56.326;43.982;2023-03-02T16:01:23;1.80;;;1.25;;
74677;SDS011;67324;56.326;43.982;2023-03-02T16:03:49;1.75;;;1.20;;
74677;SDS011;67324;56.326;43.982;2023-03-02T16:06:14;1.90;;;1.30;;
74677;SDS011;67324;56.326;43.982;2023-03-02T16:08:40;2.00;;;1.40;;
74677;SDS011;67324;56.326;43.982;2023-03-02T16:11:07;1.60;;;1.20;;
74677;SDS011;67324;56.326;43.982;2023-03-02T16:13:34;2.00;;;1.38;;
74677;SDS011;67324;56.326;43.982;2023-03-02T16:16:03;1.60;;;1.20;;
74677;SDS011;67324;56.326;43.982;2023-03-02T16:18:30;1.83;;;1.25;;
74677;SDS011;67324;56.326;43.982;2023-03-02T16:20:56;1.70;;;1.08;;
74677;SDS011;67324;56.326;43.982;2023-03-02T16:23:22;1.85;;;1.38;;
74677;SDS011;67324;56.326;43.982;2023-03-02T16:25:48;2.22;;;1.20;;
74677;SDS011;67324;56.326;43.982;2023-03-02T16:28:15;2.63;;;1.15;;